sensor_id;sensor_type;location;lat;lon;timestamp;P1;durP1;ratioP1;P2;durP2;ratioP2
6566;SDS011;3317;43.994;22.878;2022-12-07T00:00:52;25.20;;;15.70;;
6566;SDS011;3317;43.994;22.878;2022-12-07T00:03:19;23.90;;;15.30;;
6566;SDS011;3317;43.994;22.878;2022-12-07T00:05:46;17.30;;;11.57;;
6566;SDS011;3317;43.994;22.878;2022-12-07T00:08:13;30.47;;;16.40;;
6566;SDS011;3317;43.994;22.878;2022-12-07T00:10:41;25.53;;;17.00;;
6566;SDS011;3317;43.994;22.878;2022-12-07T00:13:08;21.67;;;13.43;;
6566;SDS011;3317;43.994;22.878;2022-12-07T00:15:35;29.83;;;16.90;;
6566;SDS011;3317;43.994;22.878;2022-12-07T00:18:02;31.50;;;16.63;;
6566;SDS011;3317;43.994;22.878;2022-12-07T00:20:29;30.00;;;17.20;;
6566;SDS011;3317;43.994;22.878;2022-12-07T00:22:56;25.87;;;15.93;;
6566;SDS011;3317;43.994;22.878;2022-12-07T00:25:23;23.30;;;14.80;;
6566;SDS011;3317;43.994;22.878;2022-12-07T00:27:53;28.10;;;15.20;;
6566;SDS011;3317;43.994;22.878;2022-12-07T00:30:21;31.57;;;16.83;;
6566;SDS011;3317;43.994;22.878;2022-12-07T00:32:48;25.07;;;14.07;;
6566;SDS011;3317;43.994;22.878;2022-12-07T00:35:15;28.93;;;16.70;;
6566;SDS011;3317;43.994;22.878;2022-12-07T00:37:42;26.30;;;15.40;;
6566;SDS011;3317;43.994;22.878;2022-12-07T00:40:09;34.30;;;18.33;;
6566;SDS011;3317;43.994;22.878;2022-12-07T00:42:37;37.67;;;18.67;;
6566;SDS011;3317;43.994;22.878;2022-12-07T00:45:06;23.10;;;13.53;;
6566;SDS011;3317;43.994;22.878;2022-12-07T00:47:34;23.27;;;14.10;;
6566;SDS011;3317;43.994;22.878;2022-12-07T00:50:00;19.37;;;12.13;;
6566;SDS011;3317;43.994;22.878;2022-12-07T00:52:27;18.80;;;12.40;;
6566;SDS011;3317;43.994;22.878;2022-12-07T00:54:54;15.17;;;8.70;;
6566;SDS011;3317;43.994;22.878;2022-12-07T00:57:21;28.87;;;16.07;;
6566;SDS011;3317;43.994;22.878;2022-12-07T00:59:48;33.37;;;16.30;;
6566;SDS011;3317;43.994;22.878;2022-12-07T01:02:16;28.57;;;16.10;;
6566;SDS011;3317;43.994;22.878;2022-12-07T01:04:43;28.97;;;17.00;;
6566;SDS011;3317;43.994;22.878;2022-12-07T01:07:10;28.80;;;16.00;;
6566;SDS011;3317;43.994;22.878;2022-12-07T01:09:37;29.57;;;17.20;;
6566;SDS011;3317;43.994;22.878;2022-12-07T01:12:04;29.93;;;18.00;;
6566;SDS011;3317;43.994;22.878;2022-12-07T01:14:31;23.23;;;13.93;;
6566;SDS011;3317;43.994;22.878;2022-12-07T01:16:58;32.63;;;18.80;;
6566;SDS011;3317;43.994;22.878;2022-12-07T01:19:27;31.30;;;18.60;;
6566;SDS011;3317;43.994;22.878;2022-12-07T01:21:53;33.00;;;17.53;;
6566;SDS011;3317;43.994;22.878;2022-12-07T01:24:20;31.20;;;17.13;;
6566;SDS011;3317;43.994;22.878;2022-12-07T01:26:49;33.37;;;18.00;;
6566;SDS011;3317;43.994;22.878;2022-12-07T01:29:16;20.30;;;11.67;;
6566;SDS011;3317;43.994;22.878;2022-12-07T01:31:43;37.90;;;18.80;;
6566;SDS011;3317;43.994;22.878;2022-12-07T01:34:10;35.80;;;18.00;;
6566;SDS011;3317;43.994;22.878;2022-12-07T01:36:39;32.93;;;18.63;;
6566;SDS011;3317;43.994;22.878;2022-12-07T01:39:06;35.50;;;18.77;;
6566;SDS011;3317;43.994;22.878;2022-12-07T01:41:34;29.87;;;17.10;;
6566;SDS011;3317;43.994;22.878;2022-12-07T01:46:50;30.33;;;17.97;;
6566;SDS011;3317;43.994;22.878;2022-12-07T01:49:20;27.27;;;16.07;;
6566;SDS011;3317;43.994;22.878;2022-12-07T01:51:54;23.93;;;14.07;;
6566;SDS011;3317;43.994;22.878;2022-12-07T01:54:24;37.37;;;19.47;;
6566;SDS011;3317;43.994;22.878;2022-12-07T01:56:53;27.40;;;14.30;;
6566;SDS011;3317;43.994;22.878;2022-12-07T01:59:23;36.03;;;19.20;;
6566;SDS011;3317;43.994;22.878;2022-12-07T02:01:52;43.03;;;20.80;;
6566;SDS011;3317;43.994;22.878;2022-12-07T02:04:21;42.80;;;21.60;;
6566;SDS011;3317;43.994;22.878;2022-12-07T02:06:48;31.63;;;18.03;;
6566;SDS011;3317;43.994;22.878;2022-12-07T02:09:19;24.70;;;13.40;;
6566;SDS011;3317;43.994;22.878;2022-12-07T02:11:46;37.00;;;17.70;;
6566;SDS011;3317;43.994;22.878;2022-12-07T02:14:13;40.87;;;21.60;;
6566;SDS011;3317;43.994;22.878;2022-12-07T02:16:43;35.70;;;20.90;;
6566;SDS011;3317;43.994;22.878;2022-12-07T02:25:30;33.00;;;17.50;;
6566;SDS011;3317;43.994;22.878;2022-12-07T02:28:19;31.97;;;16.77;;
6566;SDS011;3317;43.994;22.878;2022-12-07T02:30:54;33.77;;;18.47;;
6566;SDS011;3317;43.994;22.878;2022-12-07T02:33:25;36.60;;;19.13;;
6566;SDS011;3317;43.994;22.878;2022-12-07T02:35:57;36.50;;;19.90;;
6566;SDS011;3317;43.994;22.878;2022-12-07T02:38:30;30.00;;;16.03;;
6566;SDS011;3317;43.994;22.878;2022-12-07T02:41:03;19.47;;;11.27;;
6566;SDS011;3317;43.994;22.878;2022-12-07T02:43:33;33.53;;;18.70;;
6566;SDS011;3317;43.994;22.878;2022-12-07T02:46:08;25.23;;;14.00;;
6566;SDS011;3317;43.994;22.878;2022-12-07T02:48:38;37.73;;;19.17;;
6566;SDS011;3317;43.994;22.878;2022-12-07T02:51:07;38.70;;;19.00;;
6566;SDS011;3317;43.994;22.878;2022-12-07T02:53:35;39.03;;;19.30;;
6566;SDS011;3317;43.994;22.878;2022-12-07T02:56:06;36.10;;;19.37;;
6566;SDS011;3317;43.994;22.878;2022-12-07T02:58:44;37.20;;;19.93;;
6566;SDS011;3317;43.994;22.878;2022-12-07T03:01:24;40.87;;;20.27;;
6566;SDS011;3317;43.994;22.878;2022-12-07T03:04:02;34.37;;;19.07;;
6566;SDS011;3317;43.994;22.878;2022-12-07T03:06:42;29.27;;;17.17;;
6566;SDS011;3317;43.994;22.878;2022-12-07T03:09:17;31.40;;;18.70;;
6566;SDS011;3317;43.994;22.878;2022-12-07T03:11:49;38.40;;;19.97;;
6566;SDS011;3317;43.994;22.878;2022-12-07T03:14:22;43.10;;;21.50;;
6566;SDS011;3317;43.994;22.878;2022-12-07T03:16:53;33.47;;;18.40;;
6566;SDS011;3317;43.994;22.878;2022-12-07T03:19:27;25.60;;;15.53;;
6566;SDS011;3317;43.994;22.878;2022-12-07T03:21:56;36.47;;;18.67;;
6566;SDS011;3317;43.994;22.878;2022-12-07T03:24:26;36.73;;;19.00;;
6566;SDS011;3317;43.994;22.878;2022-12-07T03:26:58;38.97;;;19.73;;
6566;SDS011;3317;43.994;22.878;2022-12-07T03:29:31;36.50;;;18.70;;
6566;SDS011;3317;43.994;22.878;2022-12-07T03:32:03;33.97;;;17.77;;
6566;SDS011;3317;43.994;22.878;2022-12-07T03:34:36;32.50;;;17.33;;
6566;SDS011;3317;43.994;22.878;2022-12-07T03:37:11;27.23;;;15.37;;
6566;SDS011;3317;43.994;22.878;2022-12-07T03:39:45;32.23;;;16.63;;
6566;SDS011;3317;43.994;22.878;2022-12-07T03:42:20;35.30;;;19.93;;
6566;SDS011;3317;43.994;22.878;2022-12-07T03:44:47;35.30;;;19.23;;
6566;SDS011;3317;43.994;22.878;2022-12-07T03:47:18;43.03;;;19.70;;
6566;SDS011;3317;43.994;22.878;2022-12-07T03:49:53;29.30;;;15.37;;
6566;SDS011;3317;43.994;22.878;2022-12-07T03:52:25;30.50;;;16.27;;
6566;SDS011;3317;43.994;22.878;2022-12-07T03:54:59;26.07;;;13.50;;
6566;SDS011;3317;43.994;22.878;2022-12-07T03:57:29;43.53;;;21.23;;
6566;SDS011;3317;43.994;22.878;2022-12-07T03:59:58;48.40;;;20.43;;
6566;SDS011;3317;43.994;22.878;2022-12-07T04:02:27;49.13;;;21.57;;
6566;SDS011;3317;43.994;22.878;2022-12-07T04:04:55;50.03;;;23.17;;
6566;SDS011;3317;43.994;22.878;2022-12-07T04:07:22;39.60;;;19.10;;
6566;SDS011;3317;43.994;22.878;2022-12-07T04:09:49;44.33;;;20.50;;
6566;SDS011;3317;43.994;22.878;2022-12-07T04:12:16;41.53;;;18.90;;
6566;SDS011;3317;43.994;22.878;2022-12-07T04:14:43;48.20;;;22.77;;
6566;SDS011;3317;43.994;22.878;2022-12-07T04:17:12;33.20;;;16.83;;
6566;SDS011;3317;43.994;22.878;2022-12-07T04:19:41;54.70;;;30.00;;
6566;SDS011;3317;43.994;22.878;2022-12-07T04:22:08;49.60;;;22.47;;
6566;SDS011;3317;43.994;22.878;2022-12-07T04:24:35;54.10;;;21.63;;
6566;SDS011;3317;43.994;22.878;2022-12-07T04:27:02;46.47;;;20.60;;
6566;SDS011;3317;43.994;22.878;2022-12-07T04:29:29;44.27;;;19.57;;
6566;SDS011;3317;43.994;22.878;2022-12-07T04:31:56;49.00;;;20.77;;
6566;SDS011;3317;43.994;22.878;2022-12-07T04:34:23;45.43;;;21.20;;
6566;SDS011;3317;43.994;22.878;2022-12-07T04:36:51;48.60;;;21.37;;
6566;SDS011;3317;43.994;22.878;2022-12-07T04:39:19;36.77;;;17.77;;
6566;SDS011;3317;43.994;22.878;2022-12-07T04:41:47;41.77;;;19.27;;
6566;SDS011;3317;43.994;22.878;2022-12-07T04:44:15;45.47;;;21.87;;
6566;SDS011;3317;43.994;22.878;2022-12-07T04:46:42;40.77;;;20.73;;
6566;SDS011;3317;43.994;22.878;2022-12-07T04:49:09;58.83;;;25.03;;
6566;SDS011;3317;43.994;22.878;2022-12-07T04:51:37;46.47;;;22.10;;
6566;SDS011;3317;43.994;22.878;2022-12-07T04:54:05;50.53;;;21.73;;
6566;SDS011;3317;43.994;22.878;2022-12-07T04:56:33;47.50;;;21.40;;
6566;SDS011;3317;43.994;22.878;2022-12-07T04:59:00;49.50;;;21.83;;
6566;SDS011;3317;43.994;22.878;2022-12-07T05:01:28;51.67;;;23.40;;
6566;SDS011;3317;43.994;22.878;2022-12-07T05:03:55;54.03;;;22.50;;
6566;SDS011;3317;43.994;22.878;2022-12-07T05:06:22;51.03;;;23.53;;
6566;SDS011;3317;43.994;22.878;2022-12-07T05:08:49;44.00;;;21.97;;
6566;SDS011;3317;43.994;22.878;2022-12-07T05:11:18;50.10;;;22.40;;
6566;SDS011;3317;43.994;22.878;2022-12-07T05:13:58;47.20;;;20.80;;
6566;SDS011;3317;43.994;22.878;2022-12-07T05:16:26;46.87;;;21.17;;
6566;SDS011;3317;43.994;22.878;2022-12-07T05:18:53;47.87;;;21.03;;
6566;SDS011;3317;43.994;22.878;2022-12-07T05:21:20;52.30;;;22.53;;
6566;SDS011;3317;43.994;22.878;2022-12-07T05:23:47;48.90;;;23.20;;
6566;SDS011;3317;43.994;22.878;2022-12-07T05:26:14;50.97;;;23.17;;
6566;SDS011;3317;43.994;22.878;2022-12-07T05:28:42;48.97;;;23.00;;
6566;SDS011;3317;43.994;22.878;2022-12-07T05:31:09;52.67;;;23.60;;
6566;SDS011;3317;43.994;22.878;2022-12-07T05:33:36;49.80;;;24.90;;
6566;SDS011;3317;43.994;22.878;2022-12-07T05:36:03;44.83;;;21.30;;
6566;SDS011;3317;43.994;22.878;2022-12-07T05:38:32;41.57;;;20.77;;
6566;SDS011;3317;43.994;22.878;2022-12-07T05:41:00;56.30;;;24.00;;
6566;SDS011;3317;43.994;22.878;2022-12-07T05:43:28;50.17;;;22.40;;
6566;SDS011;3317;43.994;22.878;2022-12-07T05:45:56;43.53;;;19.77;;
6566;SDS011;3317;43.994;22.878;2022-12-07T05:48:24;47.20;;;21.50;;
6566;SDS011;3317;43.994;22.878;2022-12-07T05:50:51;49.00;;;22.87;;
6566;SDS011;3317;43.994;22.878;2022-12-07T05:53:18;51.07;;;22.37;;
6566;SDS011;3317;43.994;22.878;2022-12-07T05:55:45;46.07;;;21.47;;
6566;SDS011;3317;43.994;22.878;2022-12-07T05:58:12;59.00;;;23.90;;
6566;SDS011;3317;43.994;22.878;2022-12-07T06:00:58;51.80;;;23.13;;
6566;SDS011;3317;43.994;22.878;2022-12-07T06:03:25;43.67;;;22.17;;
6566;SDS011;3317;43.994;22.878;2022-12-07T06:05:52;43.90;;;20.40;;
6566;SDS011;3317;43.994;22.878;2022-12-07T06:08:19;43.73;;;22.73;;
6566;SDS011;3317;43.994;22.878;2022-12-07T06:10:46;48.77;;;22.90;;
6566;SDS011;3317;43.994;22.878;2022-12-07T06:13:36;49.37;;;24.67;;
6566;SDS011;3317;43.994;22.878;2022-12-07T06:16:03;47.83;;;24.80;;
6566;SDS011;3317;43.994;22.878;2022-12-07T06:18:31;52.20;;;26.97;;
6566;SDS011;3317;43.994;22.878;2022-12-07T06:20:57;49.83;;;25.83;;
6566;SDS011;3317;43.994;22.878;2022-12-07T06:23:24;56.07;;;29.03;;
6566;SDS011;3317;43.994;22.878;2022-12-07T06:25:51;50.10;;;27.43;;
6566;SDS011;3317;43.994;22.878;2022-12-07T06:28:18;42.00;;;20.63;;
6566;SDS011;3317;43.994;22.878;2022-12-07T06:30:45;47.77;;;26.27;;
6566;SDS011;3317;43.994;22.878;2022-12-07T06:33:13;51.87;;;26.63;;
6566;SDS011;3317;43.994;22.878;2022-12-07T06:35:40;49.27;;;24.73;;
6566;SDS011;3317;43.994;22.878;2022-12-07T06:38:07;45.90;;;21.13;;
6566;SDS011;3317;43.994;22.878;2022-12-07T06:40:34;51.27;;;24.10;;
6566;SDS011;3317;43.994;22.878;2022-12-07T06:43:01;52.43;;;25.13;;
6566;SDS011;3317;43.994;22.878;2022-12-07T06:45:28;53.13;;;24.90;;
6566;SDS011;3317;43.994;22.878;2022-12-07T06:47:55;56.03;;;28.27;;
6566;SDS011;3317;43.994;22.878;2022-12-07T06:50:23;51.53;;;26.17;;
6566;SDS011;3317;43.994;22.878;2022-12-07T06:52:51;50.43;;;24.07;;
6566;SDS011;3317;43.994;22.878;2022-12-07T06:55:18;49.13;;;24.20;;
6566;SDS011;3317;43.994;22.878;2022-12-07T06:57:45;47.63;;;23.40;;
6566;SDS011;3317;43.994;22.878;2022-12-07T07:00:12;46.63;;;25.07;;
6566;SDS011;3317;43.994;22.878;2022-12-07T07:02:40;52.13;;;25.20;;
6566;SDS011;3317;43.994;22.878;2022-12-07T07:05:07;52.20;;;25.47;;
6566;SDS011;3317;43.994;22.878;2022-12-07T07:07:35;47.27;;;25.30;;
6566;SDS011;3317;43.994;22.878;2022-12-07T07:10:03;46.63;;;24.47;;
6566;SDS011;3317;43.994;22.878;2022-12-07T07:12:30;50.40;;;22.93;;
6566;SDS011;3317;43.994;22.878;2022-12-07T07:14:57;40.57;;;20.07;;
6566;SDS011;3317;43.994;22.878;2022-12-07T07:17:24;45.60;;;20.50;;
6566;SDS011;3317;43.994;22.878;2022-12-07T07:19:51;42.53;;;20.83;;
6566;SDS011;3317;43.994;22.878;2022-12-07T07:22:18;47.20;;;20.97;;
6566;SDS011;3317;43.994;22.878;2022-12-07T07:24:46;47.53;;;22.10;;
6566;SDS011;3317;43.994;22.878;2022-12-07T07:27:13;42.67;;;20.80;;
6566;SDS011;3317;43.994;22.878;2022-12-07T07:29:40;48.23;;;22.37;;
6566;SDS011;3317;43.994;22.878;2022-12-07T07:32:07;42.33;;;19.30;;
6566;SDS011;3317;43.994;22.878;2022-12-07T07:34:34;42.60;;;22.07;;
6566;SDS011;3317;43.994;22.878;2022-12-07T07:37:01;45.10;;;20.53;;
6566;SDS011;3317;43.994;22.878;2022-12-07T07:39:28;39.00;;;18.43;;
6566;SDS011;3317;43.994;22.878;2022-12-07T07:41:56;39.50;;;18.60;;
6566;SDS011;3317;43.994;22.878;2022-12-07T07:44:23;44.60;;;20.83;;
6566;SDS011;3317;43.994;22.878;2022-12-07T07:46:50;41.70;;;19.60;;
6566;SDS011;3317;43.994;22.878;2022-12-07T07:49:17;37.93;;;18.40;;
6566;SDS011;3317;43.994;22.878;2022-12-07T07:51:45;40.97;;;19.43;;
6566;SDS011;3317;43.994;22.878;2022-12-07T07:54:12;42.07;;;19.73;;
6566;SDS011;3317;43.994;22.878;2022-12-07T07:56:39;38.07;;;19.53;;
6566;SDS011;3317;43.994;22.878;2022-12-07T07:59:07;35.27;;;19.30;;
6566;SDS011;3317;43.994;22.878;2022-12-07T08:01:34;36.73;;;19.40;;
6566;SDS011;3317;43.994;22.878;2022-12-07T08:04:01;34.20;;;17.47;;
6566;SDS011;3317;43.994;22.878;2022-12-07T08:06:28;37.37;;;18.20;;
6566;SDS011;3317;43.994;22.878;2022-12-07T08:08:55;34.00;;;15.90;;
6566;SDS011;3317;43.994;22.878;2022-12-07T08:11:23;38.53;;;19.60;;
6566;SDS011;3317;43.994;22.878;2022-12-07T08:13:50;33.17;;;17.43;;
6566;SDS011;3317;43.994;22.878;2022-12-07T08:16:19;36.97;;;19.40;;
6566;SDS011;3317;43.994;22.878;2022-12-07T08:18:46;33.40;;;17.30;;
6566;SDS011;3317;43.994;22.878;2022-12-07T08:21:13;34.43;;;17.30;;
6566;SDS011;3317;43.994;22.878;2022-12-07T08:23:41;35.97;;;17.87;;
6566;SDS011;3317;43.994;22.878;2022-12-07T08:26:09;37.50;;;18.40;;
6566;SDS011;3317;43.994;22.878;2022-12-07T08:28:36;40.30;;;19.10;;
6566;SDS011;3317;43.994;22.878;2022-12-07T08:31:04;40.00;;;19.03;;
6566;SDS011;3317;43.994;22.878;2022-12-07T08:33:34;39.93;;;18.60;;
6566;SDS011;3317;43.994;22.878;2022-12-07T08:36:01;36.30;;;18.17;;
6566;SDS011;3317;43.994;22.878;2022-12-07T08:38:29;44.50;;;18.43;;
6566;SDS011;3317;43.994;22.878;2022-12-07T08:40:57;42.23;;;17.07;;
6566;SDS011;3317;43.994;22.878;2022-12-07T08:43:24;43.27;;;18.67;;
6566;SDS011;3317;43.994;22.878;2022-12-07T08:45:54;39.70;;;17.73;;
6566;SDS011;3317;43.994;22.878;2022-12-07T08:48:29;39.20;;;17.90;;
6566;SDS011;3317;43.994;22.878;2022-12-07T08:50:58;44.80;;;18.87;;
6566;SDS011;3317;43.994;22.878;2022-12-07T08:53:27;45.87;;;20.63;;
6566;SDS011;3317;43.994;22.878;2022-12-07T08:55:54;37.50;;;17.37;;
6566;SDS011;3317;43.994;22.878;2022-12-07T08:58:23;42.60;;;18.60;;
6566;SDS011;3317;43.994;22.878;2022-12-07T09:00:50;35.30;;;16.00;;
6566;SDS011;3317;43.994;22.878;2022-12-07T09:03:17;35.70;;;17.90;;
6566;SDS011;3317;43.994;22.878;2022-12-07T09:05:44;38.17;;;17.13;;
6566;SDS011;3317;43.994;22.878;2022-12-07T09:08:13;33.33;;;16.87;;
6566;SDS011;3317;43.994;22.878;2022-12-07T09:10:40;33.10;;;16.50;;
6566;SDS011;3317;43.994;22.878;2022-12-07T09:13:07;27.47;;;14.10;;
6566;SDS011;3317;43.994;22.878;2022-12-07T09:15:34;27.10;;;14.67;;
6566;SDS011;3317;43.994;22.878;2022-12-07T09:18:01;25.63;;;13.03;;
6566;SDS011;3317;43.994;22.878;2022-12-07T09:20:28;28.80;;;15.23;;
6566;SDS011;3317;43.994;22.878;2022-12-07T09:22:54;30.80;;;14.87;;
6566;SDS011;3317;43.994;22.878;2022-12-07T09:25:23;33.70;;;17.77;;
6566;SDS011;3317;43.994;22.878;2022-12-07T09:27:54;26.07;;;15.13;;
6566;SDS011;3317;43.994;22.878;2022-12-07T09:30:22;23.67;;;14.03;;
6566;SDS011;3317;43.994;22.878;2022-12-07T09:32:49;24.80;;;14.67;;
6566;SDS011;3317;43.994;22.878;2022-12-07T09:35:16;27.40;;;15.47;;
6566;SDS011;3317;43.994;22.878;2022-12-07T09:37:42;26.30;;;14.27;;
6566;SDS011;3317;43.994;22.878;2022-12-07T09:40:10;24.87;;;13.57;;
6566;SDS011;3317;43.994;22.878;2022-12-07T09:42:39;27.13;;;14.50;;
6566;SDS011;3317;43.994;22.878;2022-12-07T09:45:11;24.67;;;14.77;;
6566;SDS011;3317;43.994;22.878;2022-12-07T09:47:41;23.03;;;13.50;;
6566;SDS011;3317;43.994;22.878;2022-12-07T09:50:12;21.13;;;13.03;;
6566;SDS011;3317;43.994;22.878;2022-12-07T09:52:41;25.90;;;13.67;;
6566;SDS011;3317;43.994;22.878;2022-12-07T09:55:10;23.20;;;13.60;;
6566;SDS011;3317;43.994;22.878;2022-12-07T09:57:40;25.13;;;14.07;;
6566;SDS011;3317;43.994;22.878;2022-12-07T10:00:11;22.80;;;12.30;;
6566;SDS011;3317;43.994;22.878;2022-12-07T10:02:41;18.30;;;11.93;;
6566;SDS011;3317;43.994;22.878;2022-12-07T10:05:12;23.13;;;13.53;;
6566;SDS011;3317;43.994;22.878;2022-12-07T10:07:41;21.47;;;12.67;;
6566;SDS011;3317;43.994;22.878;2022-12-07T10:10:13;22.37;;;13.80;;
6566;SDS011;3317;43.994;22.878;2022-12-07T10:12:58;28.10;;;15.90;;
6566;SDS011;3317;43.994;22.878;2022-12-07T10:15:46;25.03;;;13.07;;
6566;SDS011;3317;43.994;22.878;2022-12-07T10:18:17;24.43;;;13.70;;
6566;SDS011;3317;43.994;22.878;2022-12-07T10:20:46;23.27;;;13.80;;
6566;SDS011;3317;43.994;22.878;2022-12-07T10:23:14;22.20;;;13.17;;
6566;SDS011;3317;43.994;22.878;2022-12-07T10:25:42;23.60;;;13.10;;
6566;SDS011;3317;43.994;22.878;2022-12-07T10:28:13;24.93;;;13.73;;
6566;SDS011;3317;43.994;22.878;2022-12-07T10:30:46;22.40;;;12.07;;
6566;SDS011;3317;43.994;22.878;2022-12-07T10:33:21;26.77;;;14.20;;
6566;SDS011;3317;43.994;22.878;2022-12-07T10:35:58;22.03;;;12.27;;
6566;SDS011;3317;43.994;22.878;2022-12-07T10:38:26;26.63;;;13.47;;
6566;SDS011;3317;43.994;22.878;2022-12-07T10:41:05;19.90;;;11.93;;
6566;SDS011;3317;43.994;22.878;2022-12-07T10:43:34;21.30;;;11.97;;
6566;SDS011;3317;43.994;22.878;2022-12-07T10:46:10;24.83;;;13.60;;
6566;SDS011;3317;43.994;22.878;2022-12-07T10:48:59;25.20;;;15.57;;
6566;SDS011;3317;43.994;22.878;2022-12-07T10:51:42;24.90;;;13.90;;
6566;SDS011;3317;43.994;22.878;2022-12-07T10:54:21;19.43;;;13.07;;
6566;SDS011;3317;43.994;22.878;2022-12-07T10:57:01;20.57;;;13.23;;
6566;SDS011;3317;43.994;22.878;2022-12-07T10:59:57;21.93;;;14.03;;
6566;SDS011;3317;43.994;22.878;2022-12-07T11:02:36;20.50;;;13.03;;
6566;SDS011;3317;43.994;22.878;2022-12-07T11:05:20;15.80;;;11.17;;
6566;SDS011;3317;43.994;22.878;2022-12-07T11:07:56;16.30;;;11.23;;
6566;SDS011;3317;43.994;22.878;2022-12-07T11:10:34;16.80;;;9.87;;
6566;SDS011;3317;43.994;22.878;2022-12-07T11:13:16;13.03;;;9.70;;
6566;SDS011;3317;43.994;22.878;2022-12-07T11:15:55;10.10;;;7.63;;
6566;SDS011;3317;43.994;22.878;2022-12-07T11:18:51;12.73;;;8.83;;
6566;SDS011;3317;43.994;22.878;2022-12-07T11:21:26;15.47;;;10.13;;
6566;SDS011;3317;43.994;22.878;2022-12-07T11:24:01;18.70;;;12.47;;
6566;SDS011;3317;43.994;22.878;2022-12-07T11:26:35;14.10;;;9.63;;
6566;SDS011;3317;43.994;22.878;2022-12-07T11:29:25;13.93;;;10.40;;
6566;SDS011;3317;43.994;22.878;2022-12-07T11:32:08;15.70;;;11.10;;
6566;SDS011;3317;43.994;22.878;2022-12-07T11:34:47;13.67;;;9.80;;
6566;SDS011;3317;43.994;22.878;2022-12-07T11:37:25;14.40;;;10.10;;
6566;SDS011;3317;43.994;22.878;2022-12-07T11:39:59;12.97;;;9.40;;
6566;SDS011;3317;43.994;22.878;2022-12-07T11:42:33;13.17;;;9.30;;
6566;SDS011;3317;43.994;22.878;2022-12-07T11:45:10;13.30;;;9.57;;
6566;SDS011;3317;43.994;22.878;2022-12-07T11:47:45;13.37;;;9.50;;
6566;SDS011;3317;43.994;22.878;2022-12-07T11:50:20;17.20;;;10.43;;
6566;SDS011;3317;43.994;22.878;2022-12-07T11:52:53;11.53;;;8.00;;
6566;SDS011;3317;43.994;22.878;2022-12-07T11:55:26;20.43;;;12.40;;
6566;SDS011;3317;43.994;22.878;2022-12-07T11:57:58;15.17;;;11.20;;
6566;SDS011;3317;43.994;22.878;2022-12-07T12:00:30;15.97;;;11.03;;
6566;SDS011;3317;43.994;22.878;2022-12-07T12:03:01;15.13;;;10.57;;
6566;SDS011;3317;43.994;22.878;2022-12-07T12:05:34;17.10;;;11.43;;
6566;SDS011;3317;43.994;22.878;2022-12-07T12:08:03;12.40;;;9.50;;
6566;SDS011;3317;43.994;22.878;2022-12-07T12:10:41;13.73;;;10.23;;
6566;SDS011;3317;43.994;22.878;2022-12-07T12:13:30;17.33;;;10.37;;
6566;SDS011;3317;43.994;22.878;2022-12-07T12:16:20;15.03;;;10.47;;
6566;SDS011;3317;43.994;22.878;2022-12-07T12:19:11;11.07;;;8.17;;
6566;SDS011;3317;43.994;22.878;2022-12-07T12:21:48;11.30;;;8.40;;
6566;SDS011;3317;43.994;22.878;2022-12-07T12:24:22;10.60;;;8.20;;
6566;SDS011;3317;43.994;22.878;2022-12-07T12:26:52;11.43;;;8.00;;
6566;SDS011;3317;43.994;22.878;2022-12-07T12:29:23;12.73;;;8.63;;
6566;SDS011;3317;43.994;22.878;2022-12-07T12:32:11;12.27;;;8.70;;
6566;SDS011;3317;43.994;22.878;2022-12-07T12:34:59;13.97;;;9.70;;
6566;SDS011;3317;43.994;22.878;2022-12-07T12:37:40;13.30;;;10.40;;
6566;SDS011;3317;43.994;22.878;2022-12-07T12:55:14;12.80;;;8.63;;
6566;SDS011;3317;43.994;22.878;2022-12-07T12:57:46;15.73;;;10.90;;
6566;SDS011;3317;43.994;22.878;2022-12-07T13:00:17;15.23;;;10.63;;
6566;SDS011;3317;43.994;22.878;2022-12-07T13:02:49;14.93;;;10.30;;
6566;SDS011;3317;43.994;22.878;2022-12-07T13:05:19;16.47;;;11.47;;
6566;SDS011;3317;43.994;22.878;2022-12-07T13:07:54;16.97;;;11.20;;
6566;SDS011;3317;43.994;22.878;2022-12-07T13:10:29;16.77;;;11.23;;
6566;SDS011;3317;43.994;22.878;2022-12-07T13:13:04;12.07;;;8.60;;
6566;SDS011;3317;43.994;22.878;2022-12-07T13:15:52;10.90;;;8.73;;
6566;SDS011;3317;43.994;22.878;2022-12-07T13:18:24;14.83;;;11.27;;
6566;SDS011;3317;43.994;22.878;2022-12-07T13:21:00;16.60;;;10.57;;
6566;SDS011;3317;43.994;22.878;2022-12-07T13:23:31;15.73;;;10.13;;
6566;SDS011;3317;43.994;22.878;2022-12-07T13:26:08;15.10;;;11.03;;
6566;SDS011;3317;43.994;22.878;2022-12-07T13:28:42;17.97;;;12.67;;
6566;SDS011;3317;43.994;22.878;2022-12-07T13:31:15;18.00;;;11.60;;
6566;SDS011;3317;43.994;22.878;2022-12-07T13:33:57;17.20;;;12.20;;
6566;SDS011;3317;43.994;22.878;2022-12-07T13:36:25;17.77;;;12.10;;
6566;SDS011;3317;43.994;22.878;2022-12-07T13:38:57;17.73;;;13.03;;
6566;SDS011;3317;43.994;22.878;2022-12-07T13:41:27;20.00;;;13.00;;
6566;SDS011;3317;43.994;22.878;2022-12-07T13:44:01;19.53;;;13.40;;
6566;SDS011;3317;43.994;22.878;2022-12-07T13:46:35;21.63;;;14.20;;
6566;SDS011;3317;43.994;22.878;2022-12-07T13:49:18;18.50;;;12.20;;
6566;SDS011;3317;43.994;22.878;2022-12-07T13:51:47;21.83;;;13.93;;
6566;SDS011;3317;43.994;22.878;2022-12-07T13:54:14;27.90;;;17.07;;
6566;SDS011;3317;43.994;22.878;2022-12-07T13:56:43;21.50;;;13.77;;
6566;SDS011;3317;43.994;22.878;2022-12-07T13:59:14;20.20;;;13.90;;
6566;SDS011;3317;43.994;22.878;2022-12-07T14:01:44;21.30;;;14.17;;
6566;SDS011;3317;43.994;22.878;2022-12-07T14:04:16;22.57;;;14.67;;
6566;SDS011;3317;43.994;22.878;2022-12-07T14:06:47;21.80;;;13.73;;
6566;SDS011;3317;43.994;22.878;2022-12-07T14:09:19;23.80;;;15.63;;
6566;SDS011;3317;43.994;22.878;2022-12-07T14:11:50;22.23;;;14.57;;
6566;SDS011;3317;43.994;22.878;2022-12-07T14:14:20;23.07;;;14.73;;
6566;SDS011;3317;43.994;22.878;2022-12-07T14:16:55;23.17;;;16.03;;
6566;SDS011;3317;43.994;22.878;2022-12-07T14:19:44;27.53;;;17.80;;
6566;SDS011;3317;43.994;22.878;2022-12-07T14:22:20;23.17;;;15.77;;
6566;SDS011;3317;43.994;22.878;2022-12-07T14:24:50;25.77;;;17.40;;
6566;SDS011;3317;43.994;22.878;2022-12-07T14:27:19;23.37;;;16.13;;
6566;SDS011;3317;43.994;22.878;2022-12-07T14:29:48;28.97;;;18.40;;
6566;SDS011;3317;43.994;22.878;2022-12-07T14:32:24;27.80;;;18.57;;
6566;SDS011;3317;43.994;22.878;2022-12-07T14:34:55;27.00;;;17.30;;
6566;SDS011;3317;43.994;22.878;2022-12-07T14:37:23;23.93;;;16.97;;
6566;SDS011;3317;43.994;22.878;2022-12-07T14:39:51;28.43;;;18.27;;
6566;SDS011;3317;43.994;22.878;2022-12-07T14:42:19;28.97;;;17.70;;
6566;SDS011;3317;43.994;22.878;2022-12-07T14:44:49;26.93;;;16.67;;
6566;SDS011;3317;43.994;22.878;2022-12-07T14:47:16;25.90;;;17.67;;
6566;SDS011;3317;43.994;22.878;2022-12-07T14:49:42;26.00;;;18.13;;
6566;SDS011;3317;43.994;22.878;2022-12-07T14:52:11;29.70;;;18.83;;
6566;SDS011;3317;43.994;22.878;2022-12-07T14:54:41;26.33;;;18.20;;
6566;SDS011;3317;43.994;22.878;2022-12-07T14:57:09;26.30;;;18.47;;
6566;SDS011;3317;43.994;22.878;2022-12-07T14:59:38;28.33;;;19.67;;
6566;SDS011;3317;43.994;22.878;2022-12-07T15:02:05;32.93;;;19.80;;
6566;SDS011;3317;43.994;22.878;2022-12-07T15:04:33;30.53;;;20.33;;
6566;SDS011;3317;43.994;22.878;2022-12-07T15:07:00;41.07;;;24.17;;
6566;SDS011;3317;43.994;22.878;2022-12-07T15:09:29;48.00;;;27.23;;
6566;SDS011;3317;43.994;22.878;2022-12-07T15:11:56;36.07;;;22.27;;
6566;SDS011;3317;43.994;22.878;2022-12-07T15:14:23;33.33;;;20.73;;
6566;SDS011;3317;43.994;22.878;2022-12-07T15:16:52;28.97;;;19.77;;
6566;SDS011;3317;43.994;22.878;2022-12-07T15:19:19;37.50;;;25.50;;